createdAt,value
2022-11-24T00:02:05.878Z,2.63
2022-11-24T00:04:39.181Z,3.25
2022-11-24T00:07:10.006Z,2.88
2022-11-24T00:09:40.145Z,3.15
2022-11-24T00:12:10.646Z,3.15
2022-11-24T00:14:45.134Z,2.90
2022-11-24T00:17:15.778Z,3.33
2022-11-24T00:19:46.092Z,3.15
2022-11-24T00:22:15.747Z,2.90
2022-11-24T00:24:46.462Z,2.58
2022-11-24T00:27:16.725Z,3.10
2022-11-24T00:29:52.792Z,3.08
2022-11-24T00:32:20.157Z,3.15
2022-11-24T00:34:47.347Z,2.72
2022-11-24T00:37:14.566Z,2.90
2022-11-24T00:39:46.130Z,2.75
2022-11-24T00:42:15.702Z,2.70
2022-11-24T00:44:45.798Z,3.80
2022-11-24T00:47:16.065Z,2.92
2022-11-24T00:49:43.123Z,2.95
2022-11-24T00:52:13.337Z,3.40
2022-11-24T00:54:43.728Z,2.95
2022-11-24T00:57:15.444Z,3.25
2022-11-24T00:59:48.939Z,2.33
2022-11-24T01:02:16.084Z,3.05
2022-11-24T01:04:43.018Z,2.53
2022-11-24T01:07:10.040Z,2.88
2022-11-24T01:09:38.217Z,2.95
2022-11-24T01:12:10.864Z,3.28
2022-11-24T01:14:43.703Z,3.33
2022-11-24T01:17:11.665Z,3.58
2022-11-24T01:19:41.885Z,3.80
2022-11-24T01:22:12.003Z,2.92
2022-11-24T01:24:43.560Z,3.03
2022-11-24T01:27:10.659Z,3.60
2022-11-24T01:29:37.618Z,3.33
2022-11-24T01:32:07.882Z,3.78
2022-11-24T01:34:40.121Z,3.00
2022-11-24T01:37:13.582Z,2.72
2022-11-24T01:39:43.571Z,3.30
2022-11-24T01:42:13.864Z,3.80
2022-11-24T01:44:42.804Z,3.72
2022-11-24T01:47:47.098Z,3.00
2022-11-24T01:50:17.241Z,3.30
2022-11-24T01:52:53.214Z,3.70
2022-11-24T01:55:22.174Z,2.90
2022-11-24T01:57:52.184Z,3.22
2022-11-24T02:00:21.078Z,3.03
2022-11-24T02:02:50.684Z,3.28
2022-11-24T02:05:27.316Z,3.40
2022-11-24T02:07:56.312Z,3.85
2022-11-24T02:10:23.885Z,3.50
2022-11-24T02:12:55.317Z,3.80
2022-11-24T02:15:31.455Z,3.60
2022-11-24T02:18:01.623Z,3.63
2022-11-24T02:20:34.572Z,3.58
2022-11-24T02:23:06.659Z,3.75
2022-11-24T02:25:48.106Z,5.20
2022-11-24T02:28:17.691Z,3.95
2022-11-24T02:30:46.478Z,4.82
2022-11-24T02:33:22.577Z,4.00
2022-11-24T02:35:49.679Z,4.32
2022-11-24T02:38:17.685Z,4.13
2022-11-24T02:40:47.665Z,3.83
2022-11-24T02:43:20.339Z,3.80
2022-11-24T02:45:47.515Z,3.95
2022-11-24T02:48:15.996Z,3.95
2022-11-24T02:50:49.336Z,4.00
2022-11-24T02:53:19.669Z,3.63
2022-11-24T02:55:49.896Z,3.78
2022-11-24T02:58:16.889Z,3.45
2022-11-24T03:00:44.063Z,4.10
2022-11-24T03:03:17.723Z,3.47
2022-11-24T03:05:48.165Z,3.50
2022-11-24T03:08:18.333Z,3.90
2022-11-24T03:10:49.603Z,2.58
2022-11-24T03:13:22.017Z,2.72
2022-11-24T03:15:51.742Z,2.92
2022-11-24T03:18:24.614Z,3.30
2022-11-24T03:20:54.243Z,2.20
2022-11-24T03:23:23.908Z,2.10
2022-11-24T03:25:55.014Z,2.40
2022-11-24T03:28:22.326Z,2.05
2022-11-24T03:30:52.538Z,2.30
2022-11-24T03:33:22.861Z,2.20
2022-11-24T03:35:49.928Z,1.70
2022-11-24T03:38:22.617Z,1.73
2022-11-24T03:40:56.092Z,2.45
2022-11-24T03:43:24.137Z,2.75
2022-11-24T03:45:55.415Z,2.22
2022-11-24T03:48:24.557Z,2.13
2022-11-24T03:51:02.412Z,1.90
2022-11-24T03:53:34.015Z,2.58
2022-11-24T03:56:01.692Z,2.05
2022-11-24T03:58:32.210Z,2.20
2022-11-24T04:01:02.457Z,2.00
2022-11-24T04:03:47.990Z,2.45
2022-11-24T04:06:15.022Z,2.38
2022-11-24T04:08:42.607Z,2.45
2022-11-24T04:11:32.106Z,2.45
2022-11-24T04:14:06.634Z,1.92
2022-11-24T04:16:39.216Z,1.83
2022-11-24T04:19:09.225Z,2.47
2022-11-24T04:21:36.276Z,1.95
2022-11-24T04:24:06.530Z,2.15
2022-11-24T04:26:36.322Z,2.20
2022-11-24T04:29:06.610Z,2.20
2022-11-24T04:31:33.729Z,2.10
2022-11-24T04:34:03.539Z,1.80
2022-11-24T04:36:30.772Z,1.50
2022-11-24T04:39:25.984Z,1.90
2022-11-24T04:41:48.812Z,2.13
2022-11-24T04:44:21.693Z,1.77
2022-11-24T04:46:52.644Z,1.88
2022-11-24T04:49:25.611Z,1.65
2022-11-24T04:51:56.046Z,1.98
2022-11-24T04:54:28.965Z,2.20
2022-11-24T04:56:56.222Z,1.70
2022-11-24T04:59:23.226Z,2.08
2022-11-24T05:01:50.464Z,1.42
2022-11-24T05:04:17.674Z,2.30
2022-11-24T05:06:52.489Z,1.92
2022-11-24T05:09:22.833Z,1.50
2022-11-24T05:11:53.565Z,1.75
2022-11-24T05:14:21.578Z,1.80
2022-11-24T05:16:48.940Z,2.45
2022-11-24T05:19:20.542Z,2.05
2022-11-24T05:21:52.774Z,1.77
2022-11-24T05:24:22.996Z,2.25
2022-11-24T05:26:50.049Z,1.80
2022-11-24T05:29:17.181Z,2.22
2022-11-24T05:31:47.172Z,1.80
2022-11-24T05:34:17.684Z,2.65
2022-11-24T05:36:56.465Z,2.00
2022-11-24T05:39:29.027Z,2.10
2022-11-24T05:42:00.333Z,1.83
2022-11-24T05:44:36.136Z,2.08
2022-11-24T05:47:03.546Z,2.15
2022-11-24T05:49:30.769Z,2.22
2022-11-24T05:52:01.003Z,1.92
2022-11-24T05:54:34.473Z,2.38
2022-11-24T05:57:08.100Z,2.42
2022-11-24T05:59:38.179Z,2.05
2022-11-24T06:02:07.629Z,2.22
2022-11-24T06:04:40.284Z,2.63
2022-11-24T06:07:17.732Z,1.40
2022-11-24T06:13:01.557Z,2.15
2022-11-24T06:15:31.731Z,1.83
2022-11-24T06:18:04.963Z,2.08
2022-11-24T06:20:34.979Z,2.45
2022-11-24T06:23:04.740Z,2.50
2022-11-24T06:25:35.183Z,2.65
2022-11-24T06:28:06.069Z,2.20
2022-11-24T06:33:52.217Z,3.70
2022-11-24T06:36:22.148Z,2.58
2022-11-24T06:38:49.845Z,2.45
2022-11-24T06:41:20.133Z,2.53
2022-11-24T06:43:50.043Z,2.15
2022-11-24T06:46:17.121Z,2.08
2022-11-24T06:48:46.334Z,3.03
2022-11-24T06:51:13.563Z,2.65
2022-11-24T06:53:41.079Z,1.90
2022-11-24T06:56:16.444Z,2.10
2022-11-24T06:58:45.151Z,1.92
2022-11-24T07:01:42.825Z,1.70
2022-11-24T07:04:14.132Z,1.80
2022-11-24T07:06:44.689Z,1.83
2022-11-24T07:09:15.806Z,2.53
2022-11-24T07:11:46.289Z,1.98
2022-11-24T07:14:13.303Z,1.70
2022-11-24T07:16:43.854Z,1.73
2022-11-24T07:19:11.603Z,1.70
2022-11-24T07:21:41.783Z,1.42
2022-11-24T07:24:09.983Z,2.00
2022-11-24T07:26:43.658Z,1.35
2022-11-24T07:29:13.911Z,1.63
2022-11-24T07:31:44.230Z,1.40
2022-11-24T07:34:12.577Z,1.30
2022-11-24T07:36:42.012Z,1.63
2022-11-24T07:39:12.624Z,1.85
2022-11-24T07:41:42.933Z,1.55
2022-11-24T07:44:19.573Z,1.80
2022-11-24T07:46:51.670Z,1.13
2022-11-24T07:49:19.309Z,1.42
2022-11-24T07:51:46.524Z,1.30
2022-11-24T07:54:19.855Z,1.20
2022-11-24T07:56:49.058Z,1.17
2022-11-24T07:59:18.493Z,1.25
2022-11-24T08:01:46.194Z,1.25
2022-11-24T08:04:15.685Z,1.27
2022-11-24T08:06:47.197Z,1.80
2022-11-24T08:09:15.041Z,0.70
2022-11-24T08:11:45.967Z,1.08
2022-11-24T08:14:13.050Z,2.22
2022-11-24T08:16:45.184Z,2.20
2022-11-24T08:19:18.420Z,1.95
2022-11-24T08:21:45.344Z,1.10
2022-11-24T08:24:14.384Z,1.27
2022-11-24T08:26:45.113Z,1.65
2022-11-24T08:29:18.428Z,1.70
2022-11-24T08:31:51.331Z,1.30
2022-11-24T08:34:18.491Z,1.95
2022-11-24T08:36:49.058Z,1.17
2022-11-24T08:39:16.341Z,1.25
2022-11-24T08:41:44.571Z,1.40
2022-11-24T08:44:13.334Z,1.40
2022-11-24T08:46:40.637Z,1.23
2022-11-24T08:49:08.056Z,1.30
2022-11-24T08:51:44.249Z,1.30
2022-11-24T08:54:16.817Z,1.35
2022-11-24T08:56:51.284Z,1.52
2022-11-24T08:59:18.728Z,1.45
2022-11-24T09:01:49.198Z,1.48
2022-11-24T09:04:19.893Z,1.70
2022-11-24T09:06:46.792Z,1.17
2022-11-24T09:09:14.371Z,1.60
2022-11-24T09:11:41.295Z,1.08
2022-11-24T09:14:08.356Z,1.30
2022-11-24T09:16:41.295Z,1.45
2022-11-24T09:19:11.161Z,1.35
2022-11-24T09:21:44.524Z,1.25
2022-11-24T09:24:14.319Z,0.98
2022-11-24T09:26:46.082Z,1.02
2022-11-24T09:29:17.764Z,1.65
2022-11-24T09:31:48.363Z,1.35
2022-11-24T09:34:16.114Z,1.13
2022-11-24T09:36:43.522Z,1.40
2022-11-24T09:39:16.296Z,0.98
2022-11-24T09:41:58.089Z,1.90
2022-11-24T09:44:38.422Z,1.65
2022-11-24T09:47:17.672Z,1.20
2022-11-24T09:49:51.912Z,1.27
2022-11-24T09:52:40.009Z,1.35
2022-11-24T09:55:15.902Z,1.33
2022-11-24T09:57:46.888Z,1.23
2022-11-24T10:00:14.832Z,1.40
2022-11-24T10:02:46.553Z,1.88
2022-11-24T10:05:13.803Z,1.48
2022-11-24T10:07:50.343Z,1.92
2022-11-24T10:10:29.250Z,1.30
2022-11-24T10:13:07.136Z,1.60
2022-11-24T10:15:37.960Z,1.63
2022-11-24T10:18:37.284Z,1.63
2022-11-24T10:21:19.628Z,2.08
2022-11-24T10:23:55.602Z,1.65
2022-11-24T10:26:35.284Z,1.73
2022-11-24T10:29:06.139Z,1.50
2022-11-24T10:31:40.420Z,1.23
2022-11-24T10:34:37.724Z,2.65
2022-11-24T10:37:18.089Z,0.98
2022-11-24T10:40:04.244Z,0.88
2022-11-24T10:42:40.843Z,1.48
2022-11-24T10:45:11.095Z,1.25
2022-11-24T10:47:41.408Z,1.27
2022-11-24T10:50:14.690Z,1.08
2022-11-24T10:52:48.177Z,1.20
2022-11-24T10:55:21.954Z,1.10
2022-11-24T10:57:51.393Z,1.17
2022-11-24T11:00:23.931Z,1.15
2022-11-24T11:03:13.215Z,1.10
2022-11-24T11:05:44.888Z,1.10
2022-11-24T11:08:16.442Z,0.93
2022-11-24T11:10:49.648Z,0.80
2022-11-24T11:13:24.056Z,0.90
2022-11-24T11:15:57.646Z,1.00
2022-11-24T11:18:36.250Z,1.10
2022-11-24T11:21:04.250Z,0.80
2022-11-24T11:23:34.047Z,0.85
2022-11-24T11:26:23.032Z,1.20
2022-11-24T11:34:47.396Z,1.50
2022-11-24T11:37:20.358Z,0.93
2022-11-24T11:39:51.952Z,0.82
2022-11-24T11:43:01.408Z,0.82
2022-11-24T11:45:45.750Z,0.90
2022-11-24T11:48:23.247Z,0.68
2022-11-24T11:51:22.406Z,0.88
2022-11-24T11:53:51.103Z,0.80
2022-11-24T11:56:28.275Z,0.90
2022-11-24T11:58:55.253Z,0.80
2022-11-24T12:01:31.179Z,0.70
2022-11-24T12:04:00.432Z,0.70
2022-11-24T12:06:46.015Z,0.90
2022-11-24T12:09:31.651Z,0.80
2022-11-24T12:12:14.557Z,0.70
2022-11-24T12:14:51.492Z,0.90
2022-11-24T12:17:24.856Z,0.80
2022-11-24T12:20:07.120Z,0.80
2022-11-24T12:22:52.557Z,0.80
2022-11-24T12:25:22.992Z,0.77
2022-11-24T12:27:56.200Z,0.85
2022-11-24T12:30:24.377Z,0.90
2022-11-24T12:32:51.480Z,0.90
2022-11-24T12:35:22.996Z,0.80
2022-11-24T12:38:01.492Z,0.77
2022-11-24T12:40:28.429Z,0.63
2022-11-24T12:43:11.215Z,0.70
2022-11-24T12:45:49.523Z,0.80
2022-11-24T12:48:28.597Z,0.85
2022-11-24T12:51:00.250Z,0.85
2022-11-24T12:53:35.875Z,0.85
2022-11-24T12:56:10.888Z,1.00
2022-11-24T12:58:50.614Z,0.73
2022-11-24T13:01:39.847Z,0.82
2022-11-24T13:04:24.241Z,0.70
2022-11-24T13:06:54.472Z,0.60
2022-11-24T13:09:24.448Z,0.82
2022-11-24T13:11:52.438Z,0.90
2022-11-24T13:14:24.490Z,0.95
2022-11-24T13:17:29.306Z,0.85
2022-11-24T13:20:13.811Z,0.98
2022-11-24T13:22:52.172Z,0.70
2022-11-24T13:25:26.753Z,0.77
2022-11-24T13:27:54.405Z,0.70
2022-11-24T13:30:54.134Z,0.70
2022-11-24T13:33:29.240Z,0.70
2022-11-24T13:36:02.127Z,0.55
2022-11-24T13:39:00.756Z,0.80
2022-11-24T13:41:36.969Z,0.52
2022-11-24T13:44:16.018Z,0.63
2022-11-24T13:47:04.801Z,0.70
2022-11-24T13:49:39.850Z,1.00
2022-11-24T13:52:25.203Z,0.60
2022-11-24T13:54:55.763Z,0.80
2022-11-24T13:57:38.658Z,0.63
2022-11-24T14:00:18.843Z,0.73
2022-11-24T14:02:49.179Z,0.75
2022-11-24T14:05:20.913Z,0.70
2022-11-24T14:07:54.349Z,0.70
2022-11-24T14:10:30.041Z,0.65
2022-11-24T14:13:15.332Z,0.88
2022-11-24T14:15:46.013Z,0.60
2022-11-24T14:18:26.692Z,0.73
2022-11-24T14:20:56.518Z,0.80
2022-11-24T14:23:28.486Z,0.80
2022-11-24T14:26:01.068Z,0.88
2022-11-24T14:28:30.648Z,0.82
2022-11-24T14:31:10.446Z,0.82
2022-11-24T14:33:39.814Z,0.43
2022-11-24T14:36:16.812Z,0.93
2022-11-24T14:38:46.873Z,0.70
2022-11-24T14:41:26.610Z,0.80
2022-11-24T14:44:09.209Z,0.90
2022-11-24T14:46:36.966Z,1.00
2022-11-24T14:49:08.419Z,0.70
2022-11-24T14:51:43.412Z,1.00
2022-11-24T14:54:21.378Z,0.93
2022-11-24T14:57:03.892Z,0.88
2022-11-24T14:59:38.649Z,0.65
2022-11-24T15:02:28.398Z,0.85
2022-11-24T15:05:04.006Z,0.90
2022-11-24T15:07:31.725Z,0.93
2022-11-24T15:10:02.734Z,0.85
2022-11-24T15:12:40.110Z,0.80
2022-11-24T15:15:23.751Z,1.17
2022-11-24T15:18:00.858Z,0.70
2022-11-24T15:20:33.277Z,0.80
2022-11-24T15:23:19.373Z,0.75
2022-11-24T15:25:49.245Z,0.50
2022-11-24T15:28:19.603Z,0.70
2022-11-24T15:30:49.803Z,0.73
2022-11-24T15:33:18.189Z,0.60
2022-11-24T15:35:45.650Z,0.55
2022-11-24T15:38:13.369Z,0.55
2022-11-24T15:40:41.171Z,0.60
2022-11-24T15:43:20.941Z,0.60
2022-11-24T15:45:54.045Z,0.73
2022-11-24T15:48:23.673Z,0.68
2022-11-24T15:50:57.999Z,0.60
2022-11-24T15:53:31.202Z,0.52
2022-11-24T15:56:09.284Z,0.65
2022-11-24T15:58:39.894Z,0.60
2022-11-24T16:01:12.501Z,0.63
2022-11-24T16:03:47.984Z,0.70
2022-11-24T16:06:24.723Z,0.73
2022-11-24T16:08:53.949Z,0.60
2022-11-24T16:11:27.963Z,0.60
2022-11-24T16:13:55.666Z,0.80
2022-11-24T16:16:26.741Z,0.50
2022-11-24T16:18:57.671Z,0.70
2022-11-24T16:21:27.806Z,1.17
2022-11-24T16:23:58.524Z,2.78
2022-11-24T16:26:31.555Z,2.00
2022-11-24T16:28:58.806Z,1.17
2022-11-24T16:31:25.912Z,1.80
2022-11-24T16:34:04.939Z,1.20
2022-11-24T16:36:35.083Z,1.20
2022-11-24T16:39:02.973Z,0.90
2022-11-24T16:41:35.928Z,0.88
2022-11-24T16:44:06.570Z,1.00
2022-11-24T16:46:36.244Z,0.90
2022-11-24T16:49:06.771Z,1.20
2022-11-24T16:51:36.159Z,0.98
2022-11-24T16:54:04.232Z,0.80
2022-11-24T16:56:34.477Z,0.98
2022-11-24T16:59:01.894Z,0.80
2022-11-24T17:01:35.370Z,0.80
2022-11-24T17:04:02.692Z,0.80
2022-11-24T17:06:30.558Z,0.80
2022-11-24T17:08:57.926Z,1.10
2022-11-24T17:11:28.925Z,1.00
2022-11-24T17:13:59.317Z,0.85
2022-11-24T17:16:27.478Z,1.13
2022-11-24T17:18:55.083Z,0.73
2022-11-24T17:21:30.772Z,0.60
2022-11-24T17:24:01.088Z,0.90
2022-11-24T17:26:31.727Z,1.30
2022-11-24T17:28:59.167Z,1.30
2022-11-24T17:31:27.836Z,1.00
2022-11-24T17:33:58.971Z,1.83
2022-11-24T17:36:31.285Z,4.60
2022-11-24T17:39:05.689Z,2.40
2022-11-24T17:41:39.399Z,1.20
2022-11-24T17:44:09.244Z,1.02
2022-11-24T17:46:37.754Z,1.15
2022-11-24T17:49:11.881Z,1.20
2022-11-24T17:51:45.331Z,2.10
2022-11-24T17:54:44.893Z,2.35
2022-11-24T17:57:03.051Z,2.85
2022-11-24T17:59:32.897Z,2.47
2022-11-24T18:02:00.012Z,2.42
2022-11-24T18:04:34.572Z,2.60
2022-11-24T18:07:07.871Z,1.75
2022-11-24T18:09:35.277Z,2.22
2022-11-24T18:12:02.938Z,2.05
2022-11-24T18:14:32.021Z,2.90
2022-11-24T18:17:01.749Z,3.50
2022-11-24T18:19:31.957Z,3.35
2022-11-24T18:22:01.394Z,3.00
2022-11-24T18:24:32.010Z,2.75
2022-11-24T18:27:02.922Z,2.42
2022-11-24T18:29:30.133Z,2.85
2022-11-24T18:31:57.302Z,4.90
2022-11-24T18:34:27.238Z,3.13
2022-11-24T18:36:56.572Z,3.35
2022-11-24T18:39:25.195Z,2.88
2022-11-24T18:41:55.604Z,3.65
2022-11-24T18:44:28.257Z,3.78
2022-11-24T18:46:55.940Z,3.83
2022-11-24T18:49:27.492Z,2.50
2022-11-24T18:51:58.165Z,2.42
2022-11-24T18:54:30.209Z,1.90
2022-11-24T18:57:03.553Z,2.35
2022-11-24T18:59:31.539Z,2.70
2022-11-24T19:02:04.181Z,2.95
2022-11-24T19:04:31.461Z,3.30
2022-11-24T19:07:05.039Z,3.72
2022-11-24T19:09:37.489Z,3.60
2022-11-24T19:12:09.255Z,4.38
2022-11-24T19:14:46.394Z,3.22
2022-11-24T19:17:16.444Z,2.78
2022-11-24T19:19:48.515Z,3.05
2022-11-24T19:22:16.451Z,2.90
2022-11-24T19:24:47.704Z,2.58
2022-11-24T19:27:16.914Z,2.53
2022-11-24T19:29:47.424Z,2.88
2022-11-24T19:32:17.714Z,2.90
2022-11-24T19:34:48.556Z,2.90
2022-11-24T19:37:24.194Z,2.42
2022-11-24T19:39:57.497Z,2.90
2022-11-24T19:42:25.071Z,2.42
2022-11-24T19:44:56.833Z,1.85
2022-11-24T19:47:33.108Z,2.33
2022-11-24T19:50:07.561Z,2.92
2022-11-24T19:52:39.809Z,1.88
2022-11-24T19:55:13.278Z,2.60
2022-11-24T19:57:40.485Z,2.60
2022-11-24T20:00:13.248Z,1.95
2022-11-24T20:02:43.736Z,2.20
2022-11-24T20:05:10.915Z,2.15
2022-11-24T20:07:40.518Z,2.08
2022-11-24T20:10:08.243Z,1.80
2022-11-24T20:12:44.843Z,2.22
2022-11-24T20:15:15.713Z,2.28
2022-11-24T20:17:43.803Z,2.20
2022-11-24T20:20:14.369Z,2.15
2022-11-24T20:22:42.138Z,2.28
2022-11-24T20:25:13.370Z,2.05
2022-11-24T20:27:41.910Z,1.80
2022-11-24T20:30:15.120Z,1.75
2022-11-24T20:32:46.116Z,2.53
2022-11-24T20:35:18.208Z,2.28
2022-11-24T20:37:50.246Z,2.55
2022-11-24T20:40:23.834Z,1.88
2022-11-24T20:42:50.808Z,2.42
2022-11-24T20:45:21.269Z,2.00
2022-11-24T20:47:54.246Z,3.10
2022-11-24T20:50:21.420Z,2.47
2022-11-24T20:52:48.675Z,2.58
2022-11-24T20:55:48.269Z,2.42
2022-11-24T20:58:19.724Z,2.47
2022-11-24T21:00:49.999Z,2.33
2022-11-24T21:03:19.675Z,2.22
2022-11-24T21:05:47.050Z,2.33
2022-11-24T21:08:20.835Z,2.40
2022-11-24T21:11:02.918Z,2.50
2022-11-24T21:13:33.379Z,2.70
2022-11-24T21:16:04.174Z,1.80
2022-11-24T21:18:34.754Z,2.20
2022-11-24T21:21:02.453Z,1.90
2022-11-24T21:23:33.103Z,1.80
2022-11-24T21:26:13.110Z,1.80
2022-11-24T21:28:45.820Z,2.78
2022-11-24T21:31:17.820Z,2.88
2022-11-24T21:33:48.636Z,3.17
2022-11-24T21:36:23.047Z,2.42
2022-11-24T21:38:59.602Z,3.03
2022-11-24T21:41:32.594Z,2.72
2022-11-24T21:44:03.092Z,2.30
2022-11-24T21:46:40.474Z,2.67
2022-11-24T21:49:16.971Z,3.05
2022-11-24T21:51:45.139Z,1.80
2022-11-24T21:54:15.975Z,2.38
2022-11-24T21:57:05.588Z,2.33
2022-11-24T21:59:38.849Z,1.90
2022-11-24T22:02:13.018Z,2.47
2022-11-24T22:04:49.635Z,2.15
2022-11-24T22:07:16.703Z,1.90
2022-11-24T22:09:43.993Z,1.52
2022-11-24T22:12:16.685Z,1.35
2022-11-24T22:14:50.019Z,1.27
2022-11-24T22:17:19.923Z,1.40
2022-11-24T22:19:50.033Z,1.50
2022-11-24T22:22:17.180Z,1.42
2022-11-24T22:24:44.282Z,1.30
2022-11-24T22:27:20.419Z,1.27
2022-11-24T22:29:54.251Z,1.40
2022-11-24T22:32:25.378Z,1.38
2022-11-24T22:34:52.682Z,1.17
2022-11-24T22:37:27.210Z,1.00
2022-11-24T22:39:57.450Z,0.75
2022-11-24T22:42:27.919Z,1.00
2022-11-24T22:44:59.278Z,0.88
2022-11-24T22:47:26.595Z,1.15
2022-11-24T22:49:57.175Z,1.15
2022-11-24T22:52:28.051Z,0.90
2022-11-24T22:55:01.612Z,1.10
2022-11-24T22:57:29.219Z,1.10
2022-11-24T23:00:02.208Z,0.93
2022-11-24T23:02:35.929Z,1.10
2022-11-24T23:05:21.570Z,1.35
2022-11-24T23:07:55.218Z,0.90
2022-11-24T23:10:25.718Z,1.00
2022-11-24T23:12:56.244Z,1.10
2022-11-24T23:15:33.324Z,0.90
2022-11-24T23:20:58.914Z,0.90
2022-11-24T23:23:32.493Z,0.90
2022-11-24T23:26:04.124Z,0.80
2022-11-24T23:28:45.534Z,0.93
2022-11-24T23:31:22.513Z,0.88
2022-11-24T23:33:57.488Z,0.77
2022-11-24T23:36:31.437Z,0.93
2022-11-24T23:39:05.260Z,0.90
2022-11-24T23:41:35.884Z,0.70
2022-11-24T23:44:08.524Z,0.90
2022-11-24T23:46:38.967Z,1.10
2022-11-24T23:49:11.245Z,1.00
2022-11-24T23:51:43.286Z,1.00
2022-11-24T23:54:11.083Z,1.02
2022-11-24T23:56:41.765Z,1.00
2022-11-24T23:59:13.480Z,0.98
